GJGBQ EGLA-EGBP

Flight info

Callsign GJGBQ
Flight time 1h 12m
Altitude 2000
Route VFR
Aircraft C172/L-V/N

Departure

Time 2026-04-26 15:03
Airport Bodmin Airfield (EGLA)

Arrival

Time 2026-04-26 16:16
Airport Cotswold Airport (EGBP)
Time Latitude Longitude Altitude Speed Heading
2026-04-26 14:51 50.50049 -4.66459 646 ft 0 kts 201°
2026-04-26 14:52 50.50048 -4.66459 648 ft 1 kts 199°
2026-04-26 14:53 50.50020 -4.66472 648 ft 3 kts 192°
2026-04-26 14:59 50.50005 -4.66467 649 ft 14 kts 159°
2026-04-26 14:59 50.49945 -4.66462 656 ft 10 kts 154°
2026-04-26 15:00 50.49850 -4.66302 649 ft 1 kts 132°
2026-04-26 15:00 50.49845 -4.66293 648 ft 0 kts 139°
2026-04-26 15:00 50.49820 -4.66253 648 ft 6 kts 147°
2026-04-26 15:00 50.49809 -4.66235 647 ft 0 kts 118°
2026-04-26 15:01 50.49804 -4.66227 647 ft 0 kts 161°
2026-04-26 15:02 50.49792 -4.66232 647 ft 11 kts 216°
2026-04-26 15:02 50.49798 -4.66280 648 ft 8 kts 315°
2026-04-26 15:02 50.49807 -4.66295 648 ft 1 kts 304°
2026-04-26 15:03 50.49969 -4.66597 656 ft 77 kts 309°
2026-04-26 15:03 50.50344 -4.67353 984 ft 91 kts 308°
2026-04-26 15:03 50.50721 -4.68156 1445 ft 93 kts 305°
2026-04-26 15:03 50.51252 -4.68930 1715 ft 116 kts 338°
2026-04-26 15:04 50.52095 -4.69222 1802 ft 125 kts
2026-04-26 15:04 50.52745 -4.68544 2051 ft 114 kts 65°
2026-04-26 15:04 50.53116 -4.67377 2100 ft 125 kts 67°
2026-04-26 15:04 50.53480 -4.66147 2216 ft 124 kts 67°
2026-04-26 15:05 50.53856 -4.64885 2350 ft 129 kts 68°
2026-04-26 15:05 50.54124 -4.64045 2566 ft 121 kts 63°
2026-04-26 15:05 50.54669 -4.62671 3196 ft 104 kts 67°
2026-04-26 15:05 50.55021 -4.61721 3684 ft 97 kts 59°
2026-04-26 15:06 50.55363 -4.60808 4084 ft 97 kts 60°
2026-04-26 15:06 50.55925 -4.60201 4277 ft 122 kts 17°
2026-04-26 15:06 50.56622 -4.59659 4757 ft 104 kts 36°
2026-04-26 15:06 50.57199 -4.59042 5210 ft 100 kts 37°
2026-04-26 15:07 50.58103 -4.57038 5522 ft 131 kts 68°
2026-04-26 15:07 50.58495 -4.55683 5562 ft 140 kts 69°
2026-04-26 15:07 50.58894 -4.54271 5582 ft 144 kts 69°
2026-04-26 15:08 50.59300 -4.52806 5594 ft 148 kts 69°
2026-04-26 15:08 50.59704 -4.51348 5743 ft 143 kts 69°
2026-04-26 15:08 50.60102 -4.49904 5800 ft 145 kts 69°
2026-04-26 15:08 50.60501 -4.48448 5813 ft 145 kts 69°
2026-04-26 15:09 50.60901 -4.46988 5841 ft 146 kts 69°
2026-04-26 15:09 50.61301 -4.45511 5869 ft 150 kts 69°
2026-04-26 15:09 50.61715 -4.43992 5844 ft 150 kts 69°
2026-04-26 15:09 50.62125 -4.42479 5850 ft 150 kts 69°
2026-04-26 15:10 50.62533 -4.40968 5846 ft 149 kts 69°
2026-04-26 15:10 50.62803 -4.39978 5865 ft 149 kts 68°
2026-04-26 15:10 50.63421 -4.38017 5862 ft 150 kts 63°
2026-04-26 15:10 50.63948 -4.36607 5850 ft 149 kts 60°
2026-04-26 15:11 50.64509 -4.35231 5858 ft 150 kts 57°
2026-04-26 15:11 50.65103 -4.33892 5863 ft 151 kts 56°
2026-04-26 15:11 50.65721 -4.32542 5845 ft 150 kts 56°
2026-04-26 15:11 50.66335 -4.31203 5867 ft 152 kts 55°
2026-04-26 15:12 50.66954 -4.29857 5852 ft 151 kts 57°
2026-04-26 15:12 50.67540 -4.28474 5863 ft 152 kts 58°
2026-04-26 15:12 50.68117 -4.27073 5855 ft 152 kts 59°
2026-04-26 15:12 50.68679 -4.25688 5848 ft 152 kts 59°
2026-04-26 15:13 50.69245 -4.24286 5853 ft 152 kts 59°
2026-04-26 15:13 50.69808 -4.22882 5838 ft 150 kts 59°
2026-04-26 15:13 50.70361 -4.21493 5833 ft 149 kts 59°
2026-04-26 15:13 50.70911 -4.20102 5868 ft 151 kts 59°
2026-04-26 15:14 50.71467 -4.18692 5845 ft 151 kts 59°
2026-04-26 15:14 50.72019 -4.17287 5846 ft 150 kts 60°
2026-04-26 15:14 50.72571 -4.15890 5839 ft 150 kts 60°
2026-04-26 15:14 50.73123 -4.14498 5850 ft 149 kts 60°
2026-04-26 15:15 50.73669 -4.13125 5840 ft 149 kts 59°
2026-04-26 15:15 50.74218 -4.11743 5859 ft 149 kts 59°
2026-04-26 15:15 50.74770 -4.10349 5864 ft 150 kts 59°
2026-04-26 15:15 50.75324 -4.08947 5854 ft 150 kts 60°
2026-04-26 15:16 50.75880 -4.07540 5865 ft 152 kts 59°
2026-04-26 15:16 50.76436 -4.06130 5844 ft 150 kts 59°
2026-04-26 15:16 50.76988 -4.04730 5859 ft 151 kts 59°
2026-04-26 15:16 50.77545 -4.03312 5867 ft 152 kts 59°
2026-04-26 15:17 50.78092 -4.01910 5850 ft 151 kts 59°
2026-04-26 15:17 50.78467 -4.00953 5848 ft 151 kts 59°
2026-04-26 15:17 50.79192 -3.99101 5845 ft 149 kts 59°
2026-04-26 15:17 50.79740 -3.97700 5864 ft 150 kts 59°
2026-04-26 15:18 50.80366 -3.96396 5846 ft 149 kts 36°
2026-04-26 15:18 50.81282 -3.95624 5854 ft 149 kts 26°
2026-04-26 15:18 50.82216 -3.94926 5848 ft 148 kts 25°
2026-04-26 15:18 50.83094 -3.94089 5850 ft 147 kts 37°
2026-04-26 15:19 50.83874 -3.93033 5867 ft 148 kts 44°
2026-04-26 15:19 50.84585 -3.91875 5856 ft 148 kts 48°
2026-04-26 15:19 50.85265 -3.90646 5865 ft 148 kts 53°
2026-04-26 15:19 50.85862 -3.89312 5864 ft 149 kts 57°
2026-04-26 15:20 50.86452 -3.87949 5863 ft 150 kts 56°
2026-04-26 15:20 50.87066 -3.86617 5862 ft 149 kts 54°
2026-04-26 15:20 50.87681 -3.85300 5853 ft 148 kts 55°
2026-04-26 15:20 50.88281 -3.83983 5863 ft 147 kts 56°
2026-04-26 15:21 50.88878 -3.82658 5875 ft 148 kts 55°
2026-04-26 15:21 50.89505 -3.81280 5654 ft 159 kts 55°
2026-04-26 15:21 50.90152 -3.79870 5410 ft 161 kts 55°
2026-04-26 15:21 50.90810 -3.78429 5161 ft 161 kts 55°
2026-04-26 15:22 50.91465 -3.76982 4900 ft 160 kts 56°
2026-04-26 15:22 50.92115 -3.75546 4640 ft 160 kts 56°
2026-04-26 15:22 50.92761 -3.74124 4433 ft 157 kts 56°
2026-04-26 15:22 50.93389 -3.72744 4349 ft 152 kts 56°
2026-04-26 15:23 50.93999 -3.71399 4311 ft 148 kts 56°
2026-04-26 15:23 50.94594 -3.70083 4286 ft 146 kts 56°
2026-04-26 15:23 50.95183 -3.68784 4277 ft 144 kts 56°
2026-04-26 15:23 50.95759 -3.67515 4276 ft 143 kts 56°
2026-04-26 15:24 50.96337 -3.66237 4279 ft 143 kts 56°
2026-04-26 15:24 50.96929 -3.64929 4276 ft 143 kts 56°
2026-04-26 15:24 50.97510 -3.63645 4273 ft 143 kts 56°
2026-04-26 15:24 50.98084 -3.62375 4284 ft 144 kts 56°
2026-04-26 15:25 50.98668 -3.61082 4275 ft 144 kts 56°
2026-04-26 15:25 50.99063 -3.60209 4272 ft 144 kts 56°
2026-04-26 15:25 50.99837 -3.58495 4276 ft 144 kts 56°
2026-04-26 15:25 51.00421 -3.57200 4274 ft 144 kts 56°
2026-04-26 15:26 51.01004 -3.55906 4270 ft 143 kts 57°
2026-04-26 15:26 51.01528 -3.54563 4275 ft 143 kts 62°
2026-04-26 15:26 51.02013 -3.53169 4278 ft 144 kts 64°
2026-04-26 15:26 51.02477 -3.51782 4268 ft 144 kts 64°
2026-04-26 15:27 51.02940 -3.50376 4265 ft 143 kts 65°
2026-04-26 15:27 51.03398 -3.48974 4267 ft 142 kts 65°
2026-04-26 15:27 51.03852 -3.47578 4267 ft 142 kts 65°
2026-04-26 15:27 51.04311 -3.46185 4282 ft 143 kts 63°
2026-04-26 15:28 51.04810 -3.44809 4269 ft 143 kts 61°
2026-04-26 15:28 51.05328 -3.43462 4268 ft 143 kts 60°
2026-04-26 15:28 51.05853 -3.42122 4273 ft 143 kts 60°
2026-04-26 15:28 51.06373 -3.40802 4274 ft 143 kts 60°
2026-04-26 15:29 51.06903 -3.39465 4269 ft 143 kts 60°
2026-04-26 15:29 51.07432 -3.38131 4265 ft 143 kts 60°
2026-04-26 15:29 51.08502 -3.35438 4269 ft 144 kts 60°
2026-04-26 15:30 51.09720 -3.32932 4270 ft 143 kts 53°
2026-04-26 15:30 51.10370 -3.31723 4278 ft 144 kts 51°
2026-04-26 15:30 51.10988 -3.30474 4267 ft 143 kts 54°
2026-04-26 15:31 51.11617 -3.29244 4268 ft 142 kts 66°
2026-04-26 15:31 51.11706 -3.26206 4259 ft 144 kts 61°
2026-04-26 15:31 51.12450 -3.25153 4270 ft 143 kts 45°
2026-04-26 15:32 51.13334 -3.23597 4277 ft 144 kts 52°
2026-04-26 15:32 51.14475 -3.21592 4164 ft 151 kts 47°
2026-04-26 15:32 51.15225 -3.20406 4033 ft 152 kts 47°
2026-04-26 15:33 51.15970 -3.19189 3886 ft 154 kts 49°
2026-04-26 15:33 51.16721 -3.17924 3667 ft 159 kts 49°
2026-04-26 15:33 51.17491 -3.16649 3402 ft 160 kts 49°
2026-04-26 15:33 51.18268 -3.15381 3174 ft 161 kts 49°
2026-04-26 15:34 51.19042 -3.14086 2919 ft 161 kts 50°
2026-04-26 15:34 51.19806 -3.12813 2618 ft 160 kts 49°
2026-04-26 15:34 51.20579 -3.11541 2388 ft 158 kts 49°
2026-04-26 15:34 51.21332 -3.10306 2296 ft 153 kts 50°
2026-04-26 15:35 51.22057 -3.09100 2247 ft 149 kts 50°
2026-04-26 15:35 51.22766 -3.07911 2226 ft 147 kts 50°
2026-04-26 15:35 51.23474 -3.06739 2216 ft 146 kts 50°
2026-04-26 15:35 51.24137 -3.05535 2209 ft 143 kts 65°
2026-04-26 15:36 51.24149 -3.04044 2218 ft 137 kts 120°
2026-04-26 15:36 51.23505 -3.02936 2208 ft 138 kts 129°
2026-04-26 15:36 51.23386 -3.01452 2190 ft 143 kts 74°
2026-04-26 15:36 51.24072 -3.00318 2197 ft 146 kts 35°
2026-04-26 15:37 51.24957 -2.99520 2234 ft 147 kts 34°
2026-04-26 15:37 51.25790 -2.98573 2232 ft 147 kts 43°
2026-04-26 15:37 51.26538 -2.97483 2255 ft 148 kts 49°
2026-04-26 15:37 51.27245 -2.96283 2247 ft 148 kts 51°
2026-04-26 15:38 51.27931 -2.95049 2277 ft 149 kts 53°
2026-04-26 15:38 51.28566 -2.93741 2266 ft 149 kts 59°
2026-04-26 15:38 51.29137 -2.92370 2231 ft 147 kts 60°
2026-04-26 15:38 51.29719 -2.91023 2214 ft 146 kts 58°
2026-04-26 15:39 51.30315 -2.89701 2240 ft 147 kts 58°
2026-04-26 15:39 51.30911 -2.88375 2230 ft 147 kts 59°
2026-04-26 15:39 51.31500 -2.87028 2261 ft 148 kts 59°
2026-04-26 15:39 51.31692 -2.86590 2280 ft 149 kts 59°
2026-04-26 15:40 51.32702 -2.84289 2276 ft 151 kts 58°
2026-04-26 15:40 51.33298 -2.82939 2240 ft 149 kts 58°
2026-04-26 15:40 51.33894 -2.81586 2238 ft 149 kts 58°
2026-04-26 15:40 51.34490 -2.80233 2217 ft 148 kts 58°
2026-04-26 15:41 51.35083 -2.78890 2216 ft 147 kts 59°
2026-04-26 15:41 51.35669 -2.77556 2195 ft 146 kts 59°
2026-04-26 15:41 51.36248 -2.76231 2202 ft 145 kts 59°
2026-04-26 15:41 51.36830 -2.74899 2200 ft 146 kts 58°
2026-04-26 15:42 51.37416 -2.73569 2196 ft 146 kts 57°
2026-04-26 15:42 51.38000 -2.72246 2206 ft 146 kts 58°
2026-04-26 15:42 51.38388 -2.71362 2223 ft 147 kts 58°
2026-04-26 15:42 51.38980 -2.70008 2230 ft 149 kts 59°
2026-04-26 15:43 51.39762 -2.68211 2204 ft 147 kts 59°
2026-04-26 15:43 51.40353 -2.66870 2204 ft 147 kts 59°
2026-04-26 15:43 51.41325 -2.64645 2213 ft 147 kts 58°
2026-04-26 15:44 51.41914 -2.63299 2216 ft 148 kts 58°
2026-04-26 15:44 51.43095 -2.60592 2202 ft 148 kts 58°
2026-04-26 15:44 51.43685 -2.59249 2195 ft 147 kts 59°
2026-04-26 15:45 51.44849 -2.56566 2205 ft 147 kts 59°
2026-04-26 15:45 51.45433 -2.55226 2205 ft 147 kts 59°
2026-04-26 15:46 51.46607 -2.52535 2289 ft 148 kts 58°
2026-04-26 15:46 51.47198 -2.51175 2303 ft 149 kts 58°
2026-04-26 15:46 51.47791 -2.49816 2307 ft 149 kts 58°
2026-04-26 15:46 51.48184 -2.48915 2302 ft 148 kts 59°
2026-04-26 15:47 51.48959 -2.47123 2302 ft 147 kts 59°
2026-04-26 15:47 51.50129 -2.44421 2299 ft 147 kts 59°
2026-04-26 15:47 51.50713 -2.43082 2316 ft 147 kts 58°
2026-04-26 15:48 51.51301 -2.41730 2332 ft 149 kts 58°
2026-04-26 15:48 51.51890 -2.40367 2319 ft 148 kts 59°
2026-04-26 15:48 51.52490 -2.38973 2202 ft 154 kts 58°
2026-04-26 15:48 51.53095 -2.37577 2125 ft 153 kts 58°
2026-04-26 15:49 51.53696 -2.36192 2082 ft 149 kts 58°
2026-04-26 15:49 51.54290 -2.34821 2069 ft 150 kts 58°
2026-04-26 15:49 51.54883 -2.33444 2076 ft 151 kts 59°
2026-04-26 15:49 51.55481 -2.32059 2061 ft 151 kts 58°
2026-04-26 15:50 51.56081 -2.30674 2055 ft 151 kts 59°
2026-04-26 15:50 51.56677 -2.29287 2060 ft 151 kts 59°
2026-04-26 15:50 51.57276 -2.27896 2044 ft 149 kts 59°
2026-04-26 15:50 51.57832 -2.26610 2029 ft 132 kts 60°
2026-04-26 15:51 51.58325 -2.25459 2121 ft 121 kts 60°
2026-04-26 15:51 51.58795 -2.24367 2224 ft 117 kts 60°
2026-04-26 15:51 51.59280 -2.23236 2401 ft 130 kts 59°
2026-04-26 15:51 51.59817 -2.21989 2495 ft 135 kts 59°
2026-04-26 15:52 51.60339 -2.20786 2523 ft 128 kts 59°
2026-04-26 15:52 51.60843 -2.19618 2536 ft 127 kts 60°
2026-04-26 15:52 51.61344 -2.18443 2531 ft 125 kts 60°
2026-04-26 15:52 51.61662 -2.17697 2536 ft 120 kts 60°
2026-04-26 15:53 51.62459 -2.16536 2508 ft 121 kts 15°
2026-04-26 15:53 51.63244 -2.16151 2541 ft 120 kts 24°
2026-04-26 15:53 51.64009 -2.15646 2504 ft 118 kts 25°
2026-04-26 15:53 51.64747 -2.15137 2490 ft 113 kts 26°
2026-04-26 15:54 51.65456 -2.14602 2503 ft 112 kts 29°
2026-04-26 15:54 51.66148 -2.14042 2505 ft 111 kts 30°
2026-04-26 15:54 51.66839 -2.13479 2512 ft 111 kts 31°
2026-04-26 15:54 51.67531 -2.12915 2511 ft 112 kts 30°
2026-04-26 15:55 51.68225 -2.12342 2490 ft 111 kts 31°
2026-04-26 15:55 51.68903 -2.11782 2512 ft 111 kts 31°
2026-04-26 15:55 51.69592 -2.11210 2504 ft 111 kts 31°
2026-04-26 15:55 51.70273 -2.10641 2483 ft 109 kts 30°
2026-04-26 15:56 51.70789 -2.09863 2536 ft 100 kts 78°
2026-04-26 15:56 51.70723 -2.08777 2594 ft 97 kts 104°
2026-04-26 15:56 51.70598 -2.07654 2575 ft 106 kts 97°
2026-04-26 15:56 51.70793 -2.06317 2511 ft 136 kts 73°
2026-04-26 15:57 51.71042 -2.04902 2597 ft 120 kts 115°
2026-04-26 15:57 51.70673 -2.03768 2546 ft 108 kts 124°
2026-04-26 15:57 51.70273 -2.02833 2485 ft 100 kts 131°
2026-04-26 15:57 51.69974 -2.02238 2491 ft 104 kts 136°
2026-04-26 15:58 51.69190 -2.01343 2532 ft 105 kts 156°
2026-04-26 15:58 51.68519 -2.00852 2494 ft 108 kts 160°
2026-04-26 15:58 51.67808 -2.00473 2523 ft 104 kts 161°
2026-04-26 15:58 51.67108 -2.00212 2613 ft 106 kts 172°
2026-04-26 15:59 51.66333 -2.00148 2571 ft 115 kts 186°
2026-04-26 15:59 51.65581 -2.00669 2474 ft 118 kts 218°
2026-04-26 15:59 51.65146 -2.01736 2502 ft 116 kts 249°
2026-04-26 15:59 51.64955 -2.03017 2519 ft 116 kts 256°
2026-04-26 16:00 51.64800 -2.04295 2540 ft 116 kts 257°
2026-04-26 16:00 51.64554 -2.05518 2540 ft 111 kts 248°
2026-04-26 16:00 51.64296 -2.06646 2643 ft 107 kts 247°
2026-04-26 16:00 51.64048 -2.07807 2636 ft 115 kts 250°
2026-04-26 16:01 51.63826 -2.09040 2625 ft 114 kts 253°
2026-04-26 16:01 51.63597 -2.10269 2596 ft 112 kts 248°
2026-04-26 16:01 51.63336 -2.11461 2566 ft 117 kts 268°
2026-04-26 16:01 51.63147 -2.12415 2626 ft 101 kts 175°
2026-04-26 16:02 51.63209 -2.11618 2577 ft 117 kts 357°
2026-04-26 16:02 51.63155 -2.12062 2539 ft 98 kts 115°
2026-04-26 16:02 51.63486 -2.12100 2476 ft 99 kts 233°
2026-04-26 16:02 51.63164 -2.11872 2431 ft 96 kts 130°
2026-04-26 16:03 51.62301 -2.11692 2348 ft 109 kts 204°
2026-04-26 16:03 51.61749 -2.12545 2290 ft 111 kts 236°
2026-04-26 16:03 51.61468 -2.13685 2331 ft 111 kts 255°
2026-04-26 16:03 51.61397 -2.14925 2351 ft 118 kts 276°
2026-04-26 16:04 51.61694 -2.16155 2400 ft 120 kts 303°
2026-04-26 16:04 51.62255 -2.17043 2569 ft 108 kts 319°
2026-04-26 16:04 51.62973 -2.17383 2587 ft 118 kts 16°
2026-04-26 16:04 51.63696 -2.16682 2512 ft 127 kts 48°
2026-04-26 16:05 51.64210 -2.15614 2627 ft 117 kts 57°
2026-04-26 16:05 51.64740 -2.14634 2716 ft 112 kts 41°
2026-04-26 16:05 51.65465 -2.14047 2641 ft 122 kts 24°
2026-04-26 16:05 51.66248 -2.13478 2585 ft 125 kts 28°
2026-04-26 16:06 51.67033 -2.12861 2537 ft 127 kts 30°
2026-04-26 16:06 51.67822 -2.12217 2521 ft 127 kts 30°
2026-04-26 16:06 51.68610 -2.11559 2517 ft 128 kts 31°
2026-04-26 16:06 51.69401 -2.10895 2514 ft 128 kts 31°
2026-04-26 16:07 51.70150 -2.10133 2510 ft 128 kts 38°
2026-04-26 16:07 51.70870 -2.09296 2509 ft 127 kts 40°
2026-04-26 16:07 51.71419 -2.08231 2507 ft 125 kts 65°
2026-04-26 16:07 51.71540 -2.06898 2504 ft 122 kts 97°
2026-04-26 16:08 51.71391 -2.05571 2489 ft 120 kts 110°
2026-04-26 16:08 51.71215 -2.04716 2492 ft 119 kts 114°
2026-04-26 16:08 51.70693 -2.03174 2529 ft 120 kts 134°
2026-04-26 16:08 51.70111 -2.02202 2508 ft 120 kts 139°
2026-04-26 16:09 51.69450 -2.01397 2509 ft 119 kts 151°
2026-04-26 16:09 51.68715 -2.00777 2490 ft 118 kts 162°
2026-04-26 16:09 51.67922 -2.00416 2488 ft 118 kts 168°
2026-04-26 16:09 51.67116 -2.00135 2514 ft 120 kts 170°
2026-04-26 16:10 51.66297 -1.99978 2513 ft 121 kts 191°
2026-04-26 16:10 51.65522 -2.00524 2500 ft 122 kts 207°
2026-04-26 16:10 51.64771 -2.01163 2483 ft 121 kts 209°
2026-04-26 16:10 51.64241 -2.02172 2500 ft 122 kts 246°
2026-04-26 16:11 51.63979 -2.03486 2481 ft 123 kts 251°
2026-04-26 16:11 51.63723 -2.04795 2504 ft 123 kts 251°
2026-04-26 16:11 51.63528 -2.06146 2519 ft 126 kts 273°
2026-04-26 16:11 51.63813 -2.07441 2503 ft 114 kts 306°
2026-04-26 16:12 51.64444 -2.07947 2468 ft 91 kts 340°
2026-04-26 16:12 51.65044 -2.08092 2269 ft 81 kts 33°
2026-04-26 16:12 51.65112 -2.06192 1763 ft 101 kts 99°
2026-04-26 16:13 51.65092 -2.05117 1574 ft 91 kts 87°
2026-04-26 16:13 51.65240 -2.04204 1521 ft 82 kts 76°
2026-04-26 16:13 51.65465 -2.03147 1352 ft 113 kts 76°
2026-04-26 16:13 51.65690 -2.01978 1295 ft 108 kts 76°
2026-04-26 16:14 51.66245 -2.01322 1217 ft 103 kts 355°
2026-04-26 16:14 51.66825 -2.01833 1157 ft 87 kts 323°
2026-04-26 16:14 51.67010 -2.03804 647 ft 91 kts 272°
2026-04-26 16:15 51.66921 -2.04642 477 ft 63 kts 268°
2026-04-26 16:15 51.66840 -2.05336 426 ft 65 kts 262°
2026-04-26 16:15 51.66767 -2.06036 432 ft 54 kts 255°
2026-04-26 16:16 51.66777 -2.06208 428 ft 19 kts 31°
2026-04-26 16:16 51.66864 -2.06139 431 ft 10 kts 320°
2026-04-26 16:16 51.66891 -2.06233 427 ft 9 kts 287°
2026-04-26 16:16 51.66903 -2.06304 420 ft 0 kts 329°